createdAt,value
2017-06-17T00:01:00.424Z,4.17
2017-06-17T00:03:27.957Z,4.80
2017-06-17T00:05:55.476Z,4.63
2017-06-17T00:08:23.020Z,4.90
2017-06-17T00:10:50.769Z,4.20
2017-06-17T00:13:18.316Z,4.37
2017-06-17T00:15:45.808Z,5.00
2017-06-17T00:18:13.415Z,4.37
2017-06-17T00:20:40.969Z,5.17
2017-06-17T00:23:08.461Z,4.47
2017-06-17T00:25:36.939Z,4.70
2017-06-17T00:28:04.534Z,5.23
2017-06-17T00:30:32.028Z,4.23
2017-06-17T00:32:59.588Z,4.53
2017-06-17T00:35:27.073Z,4.67
2017-06-17T00:37:54.588Z,4.80
2017-06-17T00:40:22.109Z,4.40
2017-06-17T00:42:49.656Z,4.53
2017-06-17T00:45:17.198Z,4.07
2017-06-17T00:47:44.680Z,4.50
2017-06-17T00:50:12.168Z,4.87
2017-06-17T00:52:40.549Z,4.23
2017-06-17T00:55:08.096Z,5.03
2017-06-17T00:57:35.588Z,4.70
2017-06-17T01:00:03.141Z,5.20
2017-06-17T01:02:30.724Z,5.77
2017-06-17T01:04:58.972Z,5.27
2017-06-17T01:07:26.544Z,5.30
2017-06-17T01:09:54.024Z,5.03
2017-06-17T01:12:21.533Z,5.70
2017-06-17T01:14:49.284Z,6.37
2017-06-17T01:17:16.769Z,5.40
2017-06-17T01:19:44.268Z,5.70
2017-06-17T01:22:11.817Z,5.50
2017-06-17T01:24:39.353Z,5.87
2017-06-17T01:27:06.905Z,5.83
2017-06-17T01:29:34.448Z,5.13
2017-06-17T01:32:01.984Z,4.97
2017-06-17T01:34:29.471Z,5.73
2017-06-17T01:36:57.068Z,6.00
2017-06-17T01:39:24.613Z,6.23
2017-06-17T01:41:52.109Z,6.93
2017-06-17T01:44:19.804Z,6.60
2017-06-17T01:46:47.284Z,6.00
2017-06-17T01:49:14.776Z,5.60
2017-06-17T01:51:43.061Z,5.73
2017-06-17T01:54:10.545Z,6.40
2017-06-17T01:56:38.028Z,6.63
2017-06-17T01:59:05.558Z,5.47
2017-06-17T02:01:33.800Z,5.83
2017-06-17T02:04:01.376Z,5.80
2017-06-17T02:06:28.900Z,5.87
2017-06-17T02:08:56.392Z,6.27
2017-06-17T02:11:23.876Z,7.40
2017-06-17T02:13:51.386Z,6.50
2017-06-17T02:16:18.880Z,5.87
2017-06-17T02:18:46.364Z,5.87
2017-06-17T02:21:32.746Z,6.40
2017-06-17T02:24:00.233Z,6.10
2017-06-17T02:26:27.936Z,6.33
2017-06-17T02:28:55.420Z,6.50
2017-06-17T02:31:22.895Z,6.20
2017-06-17T02:33:51.279Z,8.00
2017-06-17T02:36:18.765Z,5.90
2017-06-17T02:38:46.252Z,7.07
2017-06-17T02:41:13.754Z,6.77
2017-06-17T02:43:41.237Z,6.17
2017-06-17T02:46:08.797Z,6.00
2017-06-17T02:48:36.336Z,6.73
2017-06-17T02:51:03.886Z,6.00
2017-06-17T02:53:31.424Z,6.63
2017-06-17T02:55:58.963Z,6.27
2017-06-17T02:58:26.513Z,7.20
2017-06-17T03:00:54.256Z,7.47
2017-06-17T03:03:21.804Z,6.20
2017-06-17T03:05:49.284Z,6.87
2017-06-17T03:08:17.586Z,6.17
2017-06-17T03:10:45.072Z,6.53
2017-06-17T03:13:12.655Z,6.60
2017-06-17T03:15:40.196Z,5.97
2017-06-17T03:18:07.685Z,7.17
2017-06-17T03:20:35.173Z,6.83
2017-06-17T03:23:02.848Z,6.20
2017-06-17T03:25:30.340Z,6.40
2017-06-17T03:27:58.628Z,5.50
2017-06-17T03:30:26.173Z,6.23
2017-06-17T03:32:53.726Z,6.30
2017-06-17T03:35:21.257Z,6.03
2017-06-17T03:37:48.739Z,5.20
2017-06-17T03:40:16.244Z,6.33
2017-06-17T03:42:43.764Z,5.90
2017-06-17T03:45:12.024Z,5.23
2017-06-17T03:47:40.308Z,5.60
2017-06-17T03:50:07.852Z,5.10
2017-06-17T03:52:35.402Z,5.13
2017-06-17T03:55:02.935Z,5.77
2017-06-17T03:57:30.480Z,5.30
2017-06-17T03:59:58.024Z,6.07
2017-06-17T04:02:25.504Z,6.40
2017-06-17T04:04:53.116Z,6.30
2017-06-17T04:07:21.426Z,7.23
2017-06-17T04:09:48.919Z,6.70
2017-06-17T04:12:17.201Z,6.40
2017-06-17T04:14:44.694Z,6.13
2017-06-17T04:17:12.185Z,7.13
2017-06-17T04:19:39.934Z,7.30
2017-06-17T04:22:07.428Z,7.20
2017-06-17T04:24:34.921Z,7.00
2017-06-17T04:27:02.465Z,7.07
2017-06-17T04:29:30.009Z,6.80
2017-06-17T04:31:57.493Z,6.90
2017-06-17T04:34:25.197Z,8.60
2017-06-17T04:36:52.745Z,7.80
2017-06-17T04:39:20.248Z,7.23
2017-06-17T04:41:47.828Z,6.90
2017-06-17T04:44:15.312Z,7.57
2017-06-17T04:46:42.912Z,7.03
2017-06-17T04:49:10.454Z,7.77
2017-06-17T04:51:38.702Z,7.77
2017-06-17T04:54:07.076Z,6.70
2017-06-17T04:56:34.619Z,8.00
2017-06-17T04:59:02.108Z,8.20
2017-06-17T05:01:29.636Z,7.83
2017-06-17T05:03:57.120Z,9.20
2017-06-17T05:06:25.375Z,7.93
2017-06-17T05:08:52.885Z,8.17
2017-06-17T05:11:20.378Z,8.03
2017-06-17T05:13:48.664Z,8.03
2017-06-17T05:16:16.404Z,8.53
2017-06-17T05:18:43.948Z,8.20
2017-06-17T05:21:11.496Z,10.10
2017-06-17T05:23:38.996Z,7.47
2017-06-17T05:26:06.580Z,6.77
2017-06-17T05:28:34.120Z,7.90
2017-06-17T05:31:01.608Z,7.37
2017-06-17T05:33:29.127Z,7.33
2017-06-17T05:35:56.612Z,7.70
2017-06-17T05:38:24.192Z,8.40
2017-06-17T05:40:51.692Z,7.43
2017-06-17T05:43:19.213Z,7.07
2017-06-17T05:45:46.729Z,7.40
2017-06-17T05:48:14.254Z,7.80
2017-06-17T05:50:41.771Z,7.17
2017-06-17T05:53:09.256Z,7.57
2017-06-17T05:55:36.788Z,8.37
2017-06-17T05:58:04.346Z,6.93
2017-06-17T06:00:31.843Z,7.13
2017-06-17T06:02:59.420Z,8.10
2017-06-17T06:05:26.921Z,7.80
2017-06-17T06:07:54.509Z,7.67
2017-06-17T06:10:22.244Z,8.03
2017-06-17T06:12:49.808Z,8.10
2017-06-17T06:15:17.363Z,7.57
2017-06-17T06:17:44.852Z,7.93
2017-06-17T06:20:12.348Z,8.57
2017-06-17T06:22:39.905Z,8.00
2017-06-17T06:25:07.420Z,7.77
2017-06-17T06:27:34.908Z,6.50
2017-06-17T06:30:02.505Z,6.97
2017-06-17T06:32:30.009Z,7.77
2017-06-17T06:34:58.336Z,8.03
2017-06-17T06:37:25.852Z,8.03
2017-06-17T06:39:53.396Z,9.17
2017-06-17T06:42:21.036Z,8.70
2017-06-17T06:44:48.531Z,8.73
2017-06-17T06:47:16.068Z,8.73
2017-06-17T06:49:43.669Z,8.07
2017-06-17T06:52:11.913Z,8.67
2017-06-17T06:54:39.459Z,9.23
2017-06-17T06:57:07.724Z,8.30
2017-06-17T06:59:35.200Z,8.67
2017-06-17T07:02:02.723Z,9.10
2017-06-17T07:04:30.208Z,8.20
2017-06-17T07:06:57.808Z,8.20
2017-06-17T07:09:25.352Z,9.00
2017-06-17T07:11:52.902Z,10.27
2017-06-17T07:14:20.436Z,8.47
2017-06-17T07:16:47.933Z,9.90
2017-06-17T07:19:15.584Z,10.27
2017-06-17T07:21:43.177Z,9.73
2017-06-17T07:24:11.460Z,9.40
2017-06-17T07:26:38.976Z,9.93
2017-06-17T07:29:06.472Z,9.57
2017-06-17T07:31:34.065Z,10.20
2017-06-17T07:34:01.605Z,9.37
2017-06-17T07:36:29.156Z,10.57
2017-06-17T07:38:56.692Z,11.27
2017-06-17T07:41:25.194Z,9.10
2017-06-17T07:43:52.737Z,9.90
2017-06-17T07:46:20.306Z,9.77
2017-06-17T07:48:47.907Z,10.70
2017-06-17T07:51:15.635Z,10.77
2017-06-17T07:53:43.284Z,10.90
2017-06-17T07:56:11.262Z,9.30
2017-06-17T07:58:38.880Z,10.17
2017-06-17T08:01:06.984Z,9.30
2017-06-17T08:03:34.484Z,10.40
2017-06-17T08:06:02.253Z,10.00
2017-06-17T08:08:29.741Z,9.07
2017-06-17T08:10:58.377Z,9.07
2017-06-17T08:13:27.405Z,8.77
2017-06-17T08:15:54.961Z,9.10
2017-06-17T08:18:22.501Z,9.97
2017-06-17T08:20:50.053Z,8.93
2017-06-17T08:23:17.556Z,8.90
2017-06-17T08:25:45.057Z,8.70
2017-06-17T08:28:12.576Z,9.83
2017-06-17T08:30:40.128Z,9.53
2017-06-17T08:33:07.612Z,8.30
2017-06-17T08:35:35.108Z,9.80
2017-06-17T08:38:02.633Z,9.33
2017-06-17T08:40:30.903Z,8.70
2017-06-17T08:42:58.446Z,8.10
2017-06-17T08:45:26.200Z,9.67
2017-06-17T08:47:53.746Z,9.57
2017-06-17T08:50:21.281Z,8.97
2017-06-17T08:52:48.835Z,11.03
2017-06-17T08:55:16.392Z,9.57
2017-06-17T08:57:43.952Z,10.00
2017-06-17T09:00:11.476Z,10.00
2017-06-17T09:02:39.003Z,9.87
2017-06-17T09:05:06.548Z,10.30
2017-06-17T09:07:34.088Z,9.97
2017-06-17T09:10:01.572Z,9.87
2017-06-17T09:12:29.080Z,9.10
2017-06-17T09:14:56.621Z,10.80
2017-06-17T09:17:24.110Z,10.33
2017-06-17T09:19:51.598Z,10.70
2017-06-17T09:22:19.100Z,10.37
2017-06-17T09:24:46.688Z,10.73
2017-06-17T09:27:14.217Z,10.70
2017-06-17T09:29:42.501Z,9.83
2017-06-17T09:32:10.040Z,10.60
2017-06-17T09:34:37.580Z,10.57
2017-06-17T09:37:05.253Z,11.37
2017-06-17T09:39:32.772Z,11.63
2017-06-17T09:42:00.521Z,11.37
2017-06-17T09:44:28.064Z,11.53
2017-06-17T09:46:55.565Z,10.80
2017-06-17T09:49:23.152Z,11.47
2017-06-17T09:51:50.712Z,11.50
2017-06-17T09:54:18.240Z,11.27
2017-06-17T09:56:45.785Z,10.57
2017-06-17T09:59:13.328Z,11.80
2017-06-17T10:01:40.868Z,11.33
2017-06-17T10:04:08.353Z,11.00
2017-06-17T10:06:35.836Z,10.97
2017-06-17T10:09:04.096Z,10.97
2017-06-17T10:11:32.393Z,10.97
2017-06-17T10:14:00.016Z,11.10
2017-06-17T10:16:27.556Z,11.67
2017-06-17T10:18:55.109Z,13.20
2017-06-17T10:21:23.631Z,13.10
2017-06-17T10:23:51.431Z,11.30
2017-06-17T10:26:18.964Z,11.70
2017-06-17T10:28:46.604Z,12.60
2017-06-17T10:31:14.097Z,12.47
2017-06-17T10:33:41.693Z,12.10
2017-06-17T10:36:09.288Z,12.70
2017-06-17T10:38:36.773Z,11.53
2017-06-17T10:41:05.042Z,12.23
2017-06-17T10:43:32.537Z,11.53
2017-06-17T10:46:00.233Z,12.30
2017-06-17T10:48:28.864Z,12.17
2017-06-17T10:50:56.474Z,12.13
2017-06-17T10:53:24.092Z,12.40
2017-06-17T10:55:51.590Z,11.57
2017-06-17T10:58:19.080Z,11.70
2017-06-17T11:00:46.620Z,13.80
2017-06-17T11:03:14.291Z,13.70
2017-06-17T11:05:41.808Z,11.37
2017-06-17T11:08:09.318Z,14.47
2017-06-17T11:10:37.575Z,12.67
2017-06-17T11:13:05.088Z,11.10
2017-06-17T11:15:32.605Z,12.83
2017-06-17T11:18:00.094Z,11.43
2017-06-17T11:20:27.684Z,12.53
2017-06-17T11:22:55.229Z,11.97
2017-06-17T11:25:22.777Z,13.03
2017-06-17T11:27:50.356Z,11.70
2017-06-17T11:30:17.961Z,11.07
2017-06-17T11:32:45.477Z,10.73
2017-06-17T11:35:13.765Z,10.47
2017-06-17T11:37:41.308Z,11.40
2017-06-17T11:40:08.858Z,10.73
2017-06-17T11:42:36.396Z,11.90
2017-06-17T11:45:03.892Z,12.03
2017-06-17T11:47:31.481Z,11.07
2017-06-17T11:49:59.758Z,10.13
2017-06-17T11:52:27.280Z,10.33
2017-06-17T11:54:54.828Z,9.80
2017-06-17T11:57:22.321Z,9.90
2017-06-17T11:59:49.942Z,10.17
2017-06-17T12:02:17.462Z,9.87
2017-06-17T12:04:45.208Z,10.03
2017-06-17T12:07:12.691Z,9.47
2017-06-17T12:09:40.193Z,8.73
2017-06-17T12:12:07.737Z,9.23
2017-06-17T12:14:35.283Z,8.80
2017-06-17T12:17:02.769Z,8.63
2017-06-17T12:19:30.269Z,9.37
2017-06-17T12:21:57.808Z,10.90
2017-06-17T12:24:25.444Z,8.93
2017-06-17T12:26:52.997Z,9.10
2017-06-17T12:29:20.540Z,9.23
2017-06-17T12:31:48.089Z,8.93
2017-06-17T12:34:15.576Z,8.73
2017-06-17T12:36:43.166Z,7.67
2017-06-17T12:39:10.712Z,8.40
2017-06-17T12:41:38.996Z,7.73
2017-06-17T12:44:06.516Z,6.80
2017-06-17T12:46:34.060Z,6.50
2017-06-17T12:49:01.550Z,7.83
2017-06-17T12:51:29.125Z,7.43
2017-06-17T12:53:57.412Z,8.50
2017-06-17T12:56:24.896Z,8.93
2017-06-17T12:58:52.420Z,7.27
2017-06-17T13:01:19.946Z,7.23
2017-06-17T13:03:47.453Z,8.53
2017-06-17T13:06:15.041Z,7.00
2017-06-17T13:08:42.524Z,6.83
2017-06-17T13:11:10.004Z,7.57
2017-06-17T13:13:37.492Z,8.07
2017-06-17T13:16:04.977Z,7.57
2017-06-17T13:18:33.382Z,8.57
2017-06-17T13:21:01.657Z,7.83
2017-06-17T13:23:29.936Z,7.50
2017-06-17T13:25:58.114Z,7.87
2017-06-17T13:28:25.644Z,6.70
2017-06-17T13:30:53.921Z,7.20
2017-06-17T13:33:21.428Z,6.00
2017-06-17T13:35:49.698Z,6.70
2017-06-17T13:38:17.190Z,6.87
2017-06-17T13:40:44.881Z,6.63
2017-06-17T13:43:12.428Z,6.70
2017-06-17T13:45:39.919Z,6.17
2017-06-17T13:48:07.444Z,5.90
2017-06-17T13:50:34.927Z,5.73
2017-06-17T13:53:03.184Z,5.30
2017-06-17T13:55:30.672Z,6.03
2017-06-17T13:57:58.200Z,6.17
2017-06-17T14:00:25.932Z,7.03
2017-06-17T14:02:54.211Z,7.00
2017-06-17T14:05:21.692Z,6.83
2017-06-17T14:07:49.192Z,6.10
2017-06-17T14:10:17.495Z,6.33
2017-06-17T14:12:44.980Z,6.17
2017-06-17T14:15:12.497Z,6.10
2017-06-17T14:17:40.000Z,7.00
2017-06-17T14:20:07.497Z,7.07
2017-06-17T14:22:35.088Z,6.53
2017-06-17T14:25:02.632Z,5.63
2017-06-17T14:27:30.120Z,6.77
2017-06-17T14:29:57.760Z,6.17
2017-06-17T14:32:25.288Z,5.97
2017-06-17T14:34:52.813Z,6.00
2017-06-17T14:37:20.344Z,5.40
2017-06-17T14:39:47.854Z,6.00
2017-06-17T14:42:15.436Z,4.90
2017-06-17T14:44:42.939Z,5.67
2017-06-17T14:47:10.424Z,5.77
2017-06-17T14:49:38.800Z,5.40
2017-06-17T14:52:06.296Z,5.13
2017-06-17T14:54:33.783Z,5.47
2017-06-17T14:57:01.399Z,5.00
2017-06-17T14:59:28.904Z,6.00
2017-06-17T15:01:56.392Z,5.73
2017-06-17T15:04:24.012Z,6.00
2017-06-17T15:06:51.497Z,6.03
2017-06-17T15:09:19.077Z,6.63
2017-06-17T15:11:46.960Z,6.17
2017-06-17T15:14:14.486Z,6.00
2017-06-17T15:16:42.118Z,6.43
2017-06-17T15:19:09.636Z,6.87
2017-06-17T15:21:37.922Z,7.90
2017-06-17T15:24:05.437Z,6.03
2017-06-17T15:26:33.724Z,6.60
2017-06-17T15:29:01.209Z,6.23
2017-06-17T15:31:28.901Z,5.53
2017-06-17T15:33:56.457Z,5.40
2017-06-17T15:36:23.995Z,6.10
2017-06-17T15:38:51.736Z,5.87
2017-06-17T15:41:19.216Z,5.63
2017-06-17T15:43:46.724Z,6.17
2017-06-17T15:46:14.504Z,6.33
2017-06-17T15:48:42.004Z,7.30
2017-06-17T15:51:09.608Z,5.80
2017-06-17T15:53:37.218Z,6.30
2017-06-17T15:56:04.748Z,6.23
2017-06-17T15:58:32.295Z,7.20
2017-06-17T16:00:59.900Z,6.40
2017-06-17T16:03:27.442Z,6.23
2017-06-17T16:05:54.932Z,5.60
2017-06-17T16:08:22.477Z,6.03
2017-06-17T16:10:50.064Z,5.97
2017-06-17T16:13:17.600Z,5.90
2017-06-17T16:15:45.135Z,4.97
2017-06-17T16:18:12.613Z,6.57
2017-06-17T16:20:40.112Z,7.50
2017-06-17T16:23:07.657Z,8.23
2017-06-17T16:25:35.201Z,5.23
2017-06-17T16:28:02.680Z,5.50
2017-06-17T16:30:30.327Z,5.37
2017-06-17T16:32:57.828Z,4.30
2017-06-17T16:35:25.305Z,4.63
2017-06-17T16:37:53.016Z,5.20
2017-06-17T16:40:20.501Z,8.90
2017-06-17T16:42:48.004Z,5.87
2017-06-17T16:45:15.548Z,4.30
2017-06-17T16:47:43.097Z,5.17
2017-06-17T16:50:10.836Z,4.60
2017-06-17T16:52:38.380Z,4.60
2017-06-17T16:55:05.954Z,6.90
2017-06-17T16:57:34.460Z,5.60
2017-06-17T17:00:01.940Z,5.50
2017-06-17T17:02:29.476Z,4.53
2017-06-17T17:04:57.228Z,3.87
2017-06-17T17:07:24.710Z,4.40
2017-06-17T17:09:52.196Z,4.40
2017-06-17T17:12:19.729Z,5.10
2017-06-17T17:14:47.208Z,5.07
2017-06-17T17:17:14.704Z,5.10
2017-06-17T17:19:42.257Z,5.00
2017-06-17T17:22:09.791Z,4.57
2017-06-17T17:24:37.304Z,5.30
2017-06-17T17:27:04.879Z,13.77
2017-06-17T17:29:32.424Z,5.77
2017-06-17T17:31:59.968Z,6.00
2017-06-17T17:34:27.448Z,4.90
2017-06-17T17:36:54.934Z,4.50
2017-06-17T17:39:23.212Z,4.37
2017-06-17T17:41:50.757Z,5.40
2017-06-17T17:44:18.258Z,5.27
2017-06-17T17:46:45.824Z,4.47
2017-06-17T17:49:13.472Z,4.10
2017-06-17T17:51:41.720Z,4.90
2017-06-17T17:54:10.017Z,5.07
2017-06-17T17:56:38.296Z,5.43
2017-06-17T17:59:06.052Z,4.60
2017-06-17T18:01:33.542Z,5.73
2017-06-17T18:04:01.801Z,4.97
2017-06-17T18:06:29.309Z,9.23
2017-06-17T18:08:56.792Z,5.03
2017-06-17T18:11:24.381Z,7.37
2017-06-17T18:13:51.919Z,24.07
2017-06-17T18:16:19.395Z,4.60
2017-06-17T18:18:46.897Z,5.00
2017-06-17T18:21:14.542Z,5.63
2017-06-17T18:23:42.020Z,4.40
2017-06-17T18:26:09.545Z,5.77
2017-06-17T18:28:37.071Z,5.77
2017-06-17T18:31:04.552Z,6.50
2017-06-17T18:33:32.073Z,9.47
2017-06-17T18:35:59.552Z,5.20
2017-06-17T18:38:27.044Z,5.20
2017-06-17T18:40:54.593Z,4.97
2017-06-17T18:43:22.085Z,5.83
2017-06-17T18:45:49.677Z,7.20
2017-06-17T18:48:17.200Z,7.17
2017-06-17T18:50:45.481Z,5.23
2017-06-17T18:53:13.024Z,5.70
2017-06-17T18:55:40.668Z,8.10
2017-06-17T18:58:08.169Z,6.60
2017-06-17T19:00:35.768Z,7.00
2017-06-17T19:03:03.291Z,8.03
2017-06-17T19:05:30.788Z,5.70
2017-06-17T19:07:58.488Z,7.20
2017-06-17T19:10:26.008Z,6.33
2017-06-17T19:12:53.557Z,5.50
2017-06-17T19:15:21.101Z,5.70
2017-06-17T19:17:48.648Z,14.93
2017-06-17T19:20:16.187Z,12.50
2017-06-17T19:22:43.711Z,6.80
2017-06-17T19:25:11.961Z,5.73
2017-06-17T19:27:40.221Z,5.87
2017-06-17T19:30:08.509Z,7.03
2017-06-17T19:32:35.988Z,5.13
2017-06-17T19:35:03.477Z,4.90
2017-06-17T19:37:31.853Z,5.90
2017-06-17T19:39:59.335Z,4.50
2017-06-17T19:42:26.812Z,5.10
2017-06-17T19:44:55.091Z,5.00
2017-06-17T19:47:22.594Z,4.80
2017-06-17T19:49:50.189Z,5.00
2017-06-17T19:52:17.728Z,4.93
2017-06-17T19:54:45.215Z,4.90
2017-06-17T19:57:12.712Z,4.60
2017-06-17T19:59:40.262Z,4.93
2017-06-17T20:02:07.760Z,5.93
2017-06-17T20:04:35.348Z,5.30
2017-06-17T20:07:02.884Z,5.00
2017-06-17T20:09:30.433Z,5.67
2017-06-17T20:11:57.980Z,4.80
2017-06-17T20:14:25.460Z,5.00
2017-06-17T20:16:53.165Z,5.20
2017-06-17T20:19:20.645Z,5.13
2017-06-17T20:21:53.997Z,5.00
2017-06-17T20:24:27.136Z,5.40
2017-06-17T20:26:55.420Z,5.60
2017-06-17T20:29:22.944Z,5.53
2017-06-17T20:31:51.194Z,6.27
2017-06-17T20:34:19.488Z,5.60
2017-06-17T20:36:46.976Z,5.90
2017-06-17T20:39:14.672Z,5.40
2017-06-17T20:41:42.247Z,5.77
2017-06-17T20:44:09.765Z,6.50
2017-06-17T20:46:37.307Z,6.50
2017-06-17T20:49:04.789Z,6.60
2017-06-17T20:51:32.264Z,6.60
2017-06-17T20:54:00.551Z,6.30
2017-06-17T20:56:28.036Z,6.97
2017-06-17T20:58:55.561Z,7.30
2017-06-17T21:01:23.172Z,6.80
2017-06-17T21:03:50.720Z,6.83
2017-06-17T21:06:18.225Z,6.20
2017-06-17T21:08:45.817Z,6.83
2017-06-17T21:11:13.386Z,6.63
2017-06-17T21:13:40.876Z,6.70
2017-06-17T21:16:09.360Z,6.37
2017-06-17T21:18:36.839Z,6.57
2017-06-17T21:21:04.349Z,5.77
2017-06-17T21:23:32.101Z,6.50
2017-06-17T21:25:59.649Z,7.80
2017-06-17T21:28:27.276Z,6.20
2017-06-17T21:30:54.769Z,7.30
2017-06-17T21:33:22.269Z,8.07
2017-06-17T21:35:49.748Z,6.90
2017-06-17T21:38:17.264Z,8.10
2017-06-17T21:40:44.775Z,6.70
2017-06-17T21:43:13.040Z,7.70
2017-06-17T21:45:41.316Z,6.37
2017-06-17T21:48:08.859Z,7.30
2017-06-17T21:50:36.605Z,6.90
2017-06-17T21:53:04.088Z,8.00
2017-06-17T21:55:31.592Z,7.93
2017-06-17T21:57:59.081Z,8.00
2017-06-17T22:00:26.572Z,8.57
2017-06-17T22:02:54.119Z,8.50
2017-06-17T22:05:21.996Z,8.60
2017-06-17T22:07:49.521Z,8.50
2017-06-17T22:10:17.265Z,9.23
2017-06-17T22:12:44.817Z,9.03
2017-06-17T22:15:12.350Z,8.97
2017-06-17T22:17:39.996Z,9.30
2017-06-17T22:20:07.544Z,9.53
2017-06-17T22:22:35.080Z,9.00
2017-06-17T22:25:02.629Z,10.90
2017-06-17T22:27:30.164Z,8.83
2017-06-17T22:29:57.713Z,10.90
2017-06-17T22:32:25.202Z,10.50
2017-06-17T22:34:52.693Z,9.80
2017-06-17T22:37:20.213Z,9.57
2017-06-17T22:39:48.472Z,9.43
2017-06-17T22:42:16.765Z,10.37
2017-06-17T22:44:44.300Z,9.60
2017-06-17T22:47:11.852Z,10.27
2017-06-17T22:49:39.391Z,10.10
2017-06-17T22:52:06.880Z,9.63
2017-06-17T22:54:34.377Z,10.47
2017-06-17T22:57:02.120Z,10.07
2017-06-17T22:59:29.672Z,11.80
2017-06-17T23:01:57.160Z,14.03
2017-06-17T23:04:24.648Z,20.17
2017-06-17T23:06:52.196Z,18.77
2017-06-17T23:09:19.748Z,15.60
2017-06-17T23:11:47.728Z,14.20
2017-06-17T23:14:15.274Z,13.40
2017-06-17T23:16:42.880Z,14.13
2017-06-17T23:19:10.533Z,13.60
2017-06-17T23:21:38.076Z,11.80
2017-06-17T23:24:05.577Z,12.07
2017-06-17T23:26:33.059Z,13.07
2017-06-17T23:29:00.799Z,13.27
2017-06-17T23:31:28.284Z,12.30
2017-06-17T23:33:55.772Z,12.43
2017-06-17T23:36:24.148Z,12.63
2017-06-17T23:38:51.639Z,11.93
2017-06-17T23:41:19.143Z,12.20
2017-06-17T23:43:46.672Z,13.03
2017-06-17T23:46:14.178Z,11.73
2017-06-17T23:48:41.764Z,12.30
2017-06-17T23:51:09.304Z,11.60
2017-06-17T23:53:36.852Z,13.10
2017-06-17T23:56:04.340Z,11.33
2017-06-17T23:58:31.941Z,11.70
